createdAt,value
2019-05-01T00:03:16.438Z,4.87
2019-05-01T00:08:21.349Z,4.73
2019-05-01T00:13:26.181Z,4.57
2019-05-01T00:18:30.954Z,5.43
2019-05-01T00:23:35.794Z,4.43
2019-05-01T00:28:40.638Z,4.73
2019-05-01T00:33:45.461Z,4.90
2019-05-01T00:38:50.231Z,4.80
2019-05-01T00:43:55.062Z,4.90
2019-05-01T00:48:59.823Z,4.90
2019-05-01T00:54:04.928Z,5.23
2019-05-01T00:59:11.392Z,5.13
2019-05-01T01:04:17.901Z,5.00
2019-05-01T01:09:22.885Z,5.23
2019-05-01T01:14:27.719Z,6.13
2019-05-01T01:19:32.556Z,6.30
2019-05-01T01:24:37.385Z,7.30
2019-05-01T01:29:42.223Z,7.13
2019-05-01T01:34:48.345Z,5.63
2019-05-01T01:39:53.873Z,5.60
2019-05-01T01:45:04.056Z,5.07
2019-05-01T01:50:08.995Z,5.23
2019-05-01T01:55:13.908Z,5.00
2019-05-01T02:00:20.368Z,4.90
2019-05-01T02:05:27.050Z,4.77
2019-05-01T02:10:42.580Z,4.97
2019-05-01T02:15:38.336Z,5.07
2019-05-01T02:20:43.567Z,5.30
2019-05-01T02:25:48.407Z,4.90
2019-05-01T02:31:27.336Z,6.07
2019-05-01T02:36:21.617Z,5.40
2019-05-01T02:41:28.410Z,5.60
2019-05-01T02:46:36.415Z,5.80
2019-05-01T02:51:43.613Z,5.93
2019-05-01T02:56:54.218Z,6.60
2019-05-01T03:02:02.118Z,5.87
2019-05-01T03:07:09.857Z,5.57
2019-05-01T03:12:16.099Z,5.67
2019-05-01T03:17:39.392Z,5.73
2019-05-01T03:22:54.653Z,6.03
2019-05-01T03:27:59.486Z,7.33
2019-05-01T03:33:06.133Z,6.10
2019-05-01T03:38:11.064Z,5.63
2019-05-01T03:43:16.004Z,5.87
2019-05-01T03:48:20.945Z,6.17
2019-05-01T03:53:26.633Z,6.27
2019-05-01T03:58:31.744Z,6.17
2019-05-01T04:03:38.923Z,6.13
2019-05-01T04:08:44.796Z,6.67
2019-05-01T04:13:49.717Z,5.90
2019-05-01T04:18:54.619Z,5.77
2019-05-01T04:24:00.242Z,6.10
2019-05-01T04:29:15.620Z,5.47
2019-05-01T04:34:24.915Z,5.23
2019-05-01T04:39:29.855Z,5.73
2019-05-01T04:44:35.199Z,5.97
2019-05-01T04:49:40.128Z,5.30
2019-05-01T04:54:44.950Z,4.83
2019-05-01T04:59:50.277Z,5.60
2019-05-01T05:04:55.096Z,5.10
2019-05-01T05:10:00.558Z,6.47
2019-05-01T05:15:24.719Z,7.70
2019-05-01T05:20:30.337Z,5.70
2019-05-01T05:25:35.275Z,5.30
2019-05-01T05:30:42.160Z,5.80
2019-05-01T05:35:48.456Z,33.30
2019-05-01T05:40:53.855Z,10.20
2019-05-01T05:46:11.593Z,3.90
2019-05-01T05:51:21.010Z,8.93
2019-05-01T05:56:30.369Z,4.67
2019-05-01T06:01:39.244Z,4.50
2019-05-01T06:06:50.941Z,4.50
2019-05-01T06:12:04.955Z,4.03
2019-05-01T06:17:09.070Z,3.70
2019-05-01T06:22:18.503Z,4.37
2019-05-01T06:27:23.324Z,3.27
2019-05-01T06:32:28.742Z,3.10
2019-05-01T06:37:55.940Z,3.80
2019-05-01T06:42:59.138Z,3.20
2019-05-01T06:48:05.845Z,3.83
2019-05-01T06:53:10.850Z,4.33
2019-05-01T06:58:20.395Z,3.77
2019-05-01T07:03:22.220Z,3.37
2019-05-01T07:08:29.442Z,3.77
2019-05-01T07:13:35.504Z,2.90
2019-05-01T07:18:41.702Z,2.37
2019-05-01T07:23:47.774Z,2.93
2019-05-01T07:28:54.915Z,2.33
2019-05-01T07:33:59.751Z,2.90
2019-05-01T07:39:09.903Z,2.97
2019-05-01T07:44:33.855Z,2.50
2019-05-01T07:49:57.268Z,8.63
2019-05-01T07:55:02.303Z,2.40
2019-05-01T08:00:10.780Z,1.93
2019-05-01T08:05:15.613Z,2.60
2019-05-01T08:10:25.866Z,2.23
2019-05-01T08:15:32.380Z,2.27
2019-05-01T08:20:35.978Z,2.07
2019-05-01T08:25:41.224Z,2.30
2019-05-01T08:30:52.812Z,3.27
2019-05-01T08:35:57.252Z,3.07
2019-05-01T08:41:03.834Z,3.00
2019-05-01T08:46:25.274Z,2.67
2019-05-01T08:51:34.958Z,2.40
2019-05-01T08:56:38.223Z,2.80
2019-05-01T09:01:45.783Z,3.30
2019-05-01T09:06:49.610Z,2.30
2019-05-01T09:11:54.806Z,2.57
2019-05-01T09:17:01.912Z,1.90
2019-05-01T09:22:06.800Z,2.80
2019-05-01T09:27:18.545Z,2.13
2019-05-01T09:32:22.478Z,3.23
2019-05-01T09:37:27.252Z,2.17
2019-05-01T09:42:32.114Z,1.90
2019-05-01T09:47:37.268Z,1.97
2019-05-01T09:52:55.080Z,2.83
2019-05-01T09:57:59.412Z,2.10
2019-05-01T10:03:26.727Z,2.33
2019-05-01T10:08:34.862Z,1.80
2019-05-01T10:13:38.557Z,1.80
2019-05-01T10:18:43.696Z,2.07
2019-05-01T10:23:51.775Z,1.90
2019-05-01T10:29:12.144Z,2.03
2019-05-01T10:34:33.874Z,2.90
2019-05-01T10:39:38.828Z,2.63
2019-05-01T10:44:43.925Z,3.63
2019-05-01T10:49:48.914Z,3.37
2019-05-01T10:54:53.718Z,3.23
2019-05-01T10:59:58.603Z,2.83
2019-05-01T11:05:03.509Z,2.37
2019-05-01T11:10:09.451Z,3.87
2019-05-01T11:15:15.882Z,4.27
2019-05-01T11:20:20.834Z,4.07
2019-05-01T11:25:25.890Z,4.13
2019-05-01T11:30:30.732Z,3.70
2019-05-01T11:35:46.460Z,3.97
2019-05-01T11:41:04.885Z,3.70
2019-05-01T11:46:09.812Z,7.47
2019-05-01T11:51:15.026Z,3.20
2019-05-01T11:56:19.874Z,3.90
2019-05-01T12:01:26.580Z,4.53
2019-05-01T12:06:31.372Z,4.33
2019-05-01T12:11:37.873Z,3.90
2019-05-01T12:16:59.434Z,4.90
2019-05-01T12:22:04.369Z,5.13
2019-05-01T12:27:09.230Z,5.07
2019-05-01T12:32:14.104Z,4.47
2019-05-01T12:37:20.538Z,5.07
2019-05-01T12:42:29.803Z,4.93
2019-05-01T12:47:38.119Z,4.20
2019-05-01T12:52:47.564Z,5.03
2019-05-01T12:57:52.440Z,5.90
2019-05-01T13:02:57.231Z,4.53
2019-05-01T13:08:02.204Z,4.40
2019-05-01T13:13:07.068Z,4.47
2019-05-01T13:18:11.903Z,4.03
2019-05-01T13:23:16.823Z,4.27
2019-05-01T13:28:26.075Z,4.40
2019-05-01T13:33:31.066Z,4.30
2019-05-01T13:38:36.078Z,3.60
2019-05-01T13:43:40.932Z,5.30
2019-05-01T13:48:45.764Z,20.77
2019-05-01T13:53:50.925Z,4.27
2019-05-01T13:58:55.803Z,20.37
2019-05-01T14:04:00.735Z,7.27
2019-05-01T14:09:09.421Z,6.87
2019-05-01T14:14:14.285Z,5.70
2019-05-01T14:19:19.158Z,5.20
2019-05-01T14:24:34.587Z,6.83
2019-05-01T14:29:39.455Z,7.53
2019-05-01T14:34:44.307Z,5.67
2019-05-01T14:39:49.161Z,6.10
2019-05-01T14:44:54.022Z,6.70
2019-05-01T14:49:58.871Z,14.73
2019-05-01T14:55:05.769Z,11.87
2019-05-01T15:00:12.103Z,6.70
2019-05-01T15:05:17.020Z,6.73
2019-05-01T15:10:21.832Z,6.27
2019-05-01T15:15:28.325Z,8.30
2019-05-01T15:20:33.111Z,8.73
2019-05-01T15:25:38.350Z,7.57
2019-05-01T15:30:43.147Z,9.17
2019-05-01T15:35:48.006Z,9.17
2019-05-01T15:40:57.222Z,12.83
2019-05-01T15:46:02.152Z,9.47
2019-05-01T15:51:07.099Z,9.37
2019-05-01T15:56:12.230Z,18.90
2019-05-01T16:01:17.168Z,10.57
2019-05-01T16:06:22.004Z,32.70
2019-05-01T16:11:44.670Z,10.60
2019-05-01T16:16:49.577Z,60.47
2019-05-01T16:21:54.506Z,11.83
2019-05-01T16:26:59.467Z,11.70
2019-05-01T16:32:04.814Z,13.83
2019-05-01T16:37:09.731Z,14.17
2019-05-01T16:42:15.202Z,15.97
2019-05-01T16:47:20.162Z,17.60
2019-05-01T16:52:26.942Z,17.03
2019-05-01T16:57:32.326Z,20.67
2019-05-01T17:02:47.008Z,23.77
2019-05-01T17:08:05.980Z,23.33
2019-05-01T17:13:10.986Z,24.53
2019-05-01T17:18:16.708Z,26.80
2019-05-01T17:23:21.568Z,27.80
2019-05-01T17:28:26.518Z,26.33
2019-05-01T17:33:39.829Z,27.67
2019-05-01T17:38:49.578Z,25.30
2019-05-01T17:43:51.126Z,25.60
2019-05-01T17:48:56.011Z,25.40
2019-05-01T17:54:00.882Z,25.60
2019-05-01T17:59:06.049Z,24.67
2019-05-01T18:04:18.337Z,23.87
2019-05-01T18:09:23.240Z,25.17
2019-05-01T18:14:28.107Z,24.40
2019-05-01T18:19:33.037Z,27.90
2019-05-01T18:24:42.230Z,27.60
2019-05-01T18:29:54.854Z,29.03
2019-05-01T18:34:59.802Z,27.77
2019-05-01T18:40:07.841Z,26.17
2019-05-01T18:45:20.113Z,67.33
2019-05-01T18:50:23.679Z,30.13
2019-05-01T18:55:30.388Z,29.33
2019-05-01T19:00:35.107Z,48.57
2019-05-01T19:05:43.220Z,81.90
2019-05-01T19:10:46.557Z,54.33
2019-05-01T19:15:51.390Z,44.03
2019-05-01T19:20:59.737Z,44.47
2019-05-01T19:26:06.433Z,45.00
2019-05-01T19:31:09.814Z,44.03
2019-05-01T19:36:14.679Z,41.90
2019-05-01T19:41:19.446Z,49.23
2019-05-01T19:46:24.703Z,40.70
2019-05-01T19:51:29.660Z,33.83
2019-05-01T19:56:34.456Z,38.67
2019-05-01T20:01:44.438Z,37.70
2019-05-01T20:06:45.730Z,34.80
2019-05-01T20:11:50.580Z,29.83
2019-05-01T20:16:55.516Z,38.57
2019-05-01T20:22:00.505Z,31.97
2019-05-01T20:27:05.431Z,31.53
2019-05-01T20:32:10.398Z,28.03
2019-05-01T20:37:15.270Z,28.30
2019-05-01T20:42:20.134Z,26.97
2019-05-01T20:47:34.888Z,30.53
2019-05-01T20:52:31.706Z,32.83
2019-05-01T20:57:44.027Z,28.70
2019-05-01T21:02:48.882Z,28.77
2019-05-01T21:08:00.856Z,26.53
2019-05-01T21:13:05.738Z,24.37
2019-05-01T21:18:10.583Z,24.17
2019-05-01T21:23:15.452Z,22.50
2019-05-01T21:28:20.299Z,20.90
2019-05-01T21:33:25.242Z,18.30
2019-05-01T21:38:30.139Z,18.23
2019-05-01T21:43:37.012Z,17.43
2019-05-01T21:48:43.443Z,16.10
2019-05-01T21:53:48.401Z,15.03
2019-05-01T21:58:55.011Z,14.60
2019-05-01T22:04:00.138Z,14.70
2019-05-01T22:09:10.635Z,14.33
2019-05-01T22:14:16.287Z,13.77
2019-05-01T22:19:22.763Z,13.47
2019-05-01T22:24:38.200Z,13.23
2019-05-01T22:29:47.420Z,15.00
2019-05-01T22:34:56.973Z,14.50
2019-05-01T22:40:06.172Z,12.90
2019-05-01T22:45:16.904Z,14.27
2019-05-01T22:50:22.223Z,14.37
2019-05-01T22:55:28.198Z,14.03
2019-05-01T23:00:37.636Z,13.23
2019-05-01T23:05:42.594Z,14.60
2019-05-01T23:10:48.576Z,12.77
2019-05-01T23:15:56.310Z,14.70
2019-05-01T23:21:00.470Z,14.03
2019-05-01T23:26:05.336Z,13.73
2019-05-01T23:31:10.260Z,13.90
2019-05-01T23:36:23.226Z,15.77
2019-05-01T23:41:24.928Z,17.50
2019-05-01T23:46:28.096Z,17.80
2019-05-01T23:51:32.968Z,17.37
2019-05-01T23:56:38.318Z,18.87
